Time;durP1;ratioP1;P1;durP2;ratioP2;P2;SDS_P1;SDS_P2;PMS_P1;PMS_P2;Temp;Humidity;BMP_temperature;BMP_pressure;BME280_temperature;BME280_humidity;BME280_pressure;Samples;Min_cycle;Max_cycle;Signal;HPM_P1;HPM_P2
2022/08/03 00:01:47;;;;;;;12.93;6.50;;;;;;;;;;5285699;28;21813;-83
2022/08/03 00:04:18;;;;;;;13.50;7.83;;;;;;;;;;5284469;28;20271;-83
2022/08/03 00:06:49;;;;;;;11.40;7.20;;;;;;;;;;5280155;28;20041;-83
2022/08/03 00:09:20;;;;;;;11.97;8.57;;;;;;;;;;5285433;28;20333;-83
2022/08/03 00:11:51;;;;;;;11.27;8.07;;;;;;;;;;5282767;28;20056;-83
2022/08/03 00:14:22;;;;;;;13.47;8.83;;;;;;;;;;5266071;28;20638;-82
2022/08/03 00:16:54;;;;;;;9.30;6.93;;;;;;;;;;5287905;28;20025;-82
2022/08/03 00:19:25;;;;;;;11.30;7.97;;;;;;;;;;5283095;28;20276;-83
2022/08/03 00:21:56;;;;;;;13.45;7.32;;;;;;;;;;5282300;28;20769;-83
2022/08/03 00:24:27;;;;;;;14.10;7.00;;;;;;;;;;5284231;28;20031;-82
2022/08/03 00:26:59;;;;;;;10.52;6.60;;;;;;;;;;5286293;28;20257;-82
2022/08/03 00:29:30;;;;;;;16.13;7.00;;;;;;;;;;5287329;28;20385;-83
2022/08/03 00:32:01;;;;;;;11.00;7.40;;;;;;;;;;5288253;28;20388;-83
2022/08/03 00:34:32;;;;;;;12.90;5.87;;;;;;;;;;5282362;28;20044;-83
2022/08/03 00:37:03;;;;;;;11.75;5.50;;;;;;;;;;5288031;28;20036;-83
2022/08/03 00:39:34;;;;;;;18.20;5.47;;;;;;;;;;5284653;28;20032;-83
2022/08/03 00:42:06;;;;;;;11.20;6.45;;;;;;;;;;5284111;28;20037;-83
2022/08/03 00:44:44;;;;;;;15.15;5.75;;;;;;;;;;5284016;28;20029;-83
2022/08/03 00:47:15;;;;;;;13.63;5.43;;;;;;;;;;5276379;28;20525;-83
2022/08/03 00:49:46;;;;;;;14.57;5.43;;;;;;;;;;5285998;28;20083;-83
2022/08/03 00:52:17;;;;;;;12.27;5.77;;;;;;;;;;5281417;28;20284;-83
2022/08/03 00:54:49;;;;;;;14.50;5.13;;;;;;;;;;5282650;28;20401;-83
2022/08/03 00:57:20;;;;;;;8.98;5.28;;;;;;;;;;5286888;28;20275;-82
2022/08/03 00:59:51;;;;;;;12.13;5.20;;;;;;;;;;5279506;28;20065;-83
2022/08/03 01:02:22;;;;;;;11.20;5.07;;;;;;;;;;5280894;28;20327;-83
2022/08/03 01:04:54;;;;;;;17.93;5.43;;;;;;;;;;5256025;28;20033;-83
2022/08/03 01:07:37;;;;;;;12.15;4.95;;;;;;;;;;5274867;28;20063;-82
2022/08/03 01:10:11;;;;;;;13.18;5.18;;;;;;;;;;5262713;28;20033;-83
2022/08/03 01:12:50;;;;;;;13.35;5.90;;;;;;;;;;5282618;28;20037;-83
2022/08/03 01:15:28;;;;;;;13.48;5.72;;;;;;;;;;5283366;28;20397;-83
2022/08/03 01:18:04;;;;;;;11.18;5.88;;;;;;;;;;5287940;28;20025;-82
2022/08/03 01:20:35;;;;;;;;;;;;;;;;;;5283777;28;20040;-83
2022/08/03 01:23:16;;;;;;;8.65;4.40;;;;;;;;;;5280914;28;19912;-83
2022/08/03 01:26:06;;;;;;;10.95;5.05;;;;;;;;;;5279540;28;20112;-83
2022/08/03 01:28:43;;;;;;;12.20;5.40;;;;;;;;;;5279032;28;20468;-83
2022/08/03 01:31:17;;;;;;;11.25;5.20;;;;;;;;;;5279757;28;20037;-82
2022/08/03 01:33:51;;;;;;;10.75;5.00;;;;;;;;;;5264049;28;20110;-82
2022/08/03 01:36:23;;;;;;;13.02;4.90;;;;;;;;;;5276702;28;20063;-83
2022/08/03 01:38:56;;;;;;;13.98;5.45;;;;;;;;;;5267060;28;20059;-83
2022/08/03 01:41:32;;;;;;;13.00;4.80;;;;;;;;;;5284174;28;20025;-83
2022/08/03 01:44:06;;;;;;;20.00;4.63;;;;;;;;;;5275259;28;20079;-83
2022/08/03 01:46:39;;;;;;;14.10;4.93;;;;;;;;;;5261542;28;31081;-83
2022/08/03 01:49:11;;;;;;;14.48;4.97;;;;;;;;;;5266817;28;20617;-83
2022/08/03 01:51:43;;;;;;;10.02;4.97;;;;;;;;;;5280687;28;20025;-83
2022/08/03 01:54:15;;;;;;;11.23;4.45;;;;;;;;;;5285234;28;20029;-83
2022/08/03 01:56:47;;;;;;;11.50;4.78;;;;;;;;;;5280841;28;20033;-83
2022/08/03 01:59:19;;;;;;;10.23;5.25;;;;;;;;;;5274952;28;20473;-83
2022/08/03 02:01:51;;;;;;;15.50;4.55;;;;;;;;;;5262436;28;20099;-82
2022/08/03 02:04:23;;;;;;;8.60;5.35;;;;;;;;;;5268803;28;20018;-82
2022/08/03 02:06:55;;;;;;;10.90;4.72;;;;;;;;;;5262928;28;20044;-83
2022/08/03 02:09:26;;;;;;;13.52;5.57;;;;;;;;;;5280765;28;20507;-83
2022/08/03 02:11:59;;;;;;;15.40;4.80;;;;;;;;;;5264156;28;20114;-83
2022/08/03 02:14:30;;;;;;;13.40;4.65;;;;;;;;;;5282603;28;20081;-83
2022/08/03 02:17:02;;;;;;;19.43;4.73;;;;;;;;;;5279767;28;20045;-83
2022/08/03 02:19:34;;;;;;;14.57;5.35;;;;;;;;;;5258837;28;20267;-83
2022/08/03 02:22:08;;;;;;;11.73;5.00;;;;;;;;;;5267146;28;20066;-83
2022/08/03 02:24:39;;;;;;;11.32;4.47;;;;;;;;;;5286966;28;20051;-82
2022/08/03 02:27:18;;;;;;;13.05;5.43;;;;;;;;;;5239658;28;1063161;-82
2022/08/03 02:29:52;;;;;;;15.80;5.10;;;;;;;;;;5281063;28;20037;-82
2022/08/03 02:32:28;;;;;;;14.40;5.13;;;;;;;;;;5283009;28;20044;-82
2022/08/03 02:34:59;;;;;;;14.20;5.05;;;;;;;;;;5269791;28;20061;-83
2022/08/03 02:37:33;;;;;;;13.90;5.32;;;;;;;;;;5263663;28;20100;-83
2022/08/03 02:40:06;;;;;;;11.75;5.43;;;;;;;;;;5283007;28;20033;-83
2022/08/03 02:42:38;;;;;;;12.60;5.78;;;;;;;;;;5275258;28;20021;-82
2022/08/03 02:45:12;;;;;;;11.63;5.53;;;;;;;;;;5280976;28;20482;-83
2022/08/03 02:47:44;;;;;;;10.13;5.82;;;;;;;;;;5269222;28;20059;-83
2022/08/03 02:50:16;;;;;;;14.70;6.22;;;;;;;;;;5285053;28;20530;-83
2022/08/03 02:52:47;;;;;;;12.90;6.20;;;;;;;;;;5261285;28;20150;-83
2022/08/03 02:55:20;;;;;;;13.98;6.05;;;;;;;;;;5275841;28;20140;-83
2022/08/03 02:57:52;;;;;;;11.02;6.53;;;;;;;;;;5282626;28;20021;-83
2022/08/03 03:00:24;;;;;;;15.10;7.10;;;;;;;;;;5299307;28;20527;-82
2022/08/03 03:02:56;;;;;;;14.05;6.30;;;;;;;;;;5294995;28;20040;-82
2022/08/03 03:05:28;;;;;;;10.75;6.05;;;;;;;;;;5294854;28;20103;-83
2022/08/03 03:07:59;;;;;;;9.80;6.00;;;;;;;;;;5275595;28;20040;-82
2022/08/03 03:10:31;;;;;;;12.15;6.38;;;;;;;;;;5286172;28;20496;-83
2022/08/03 03:13:02;;;;;;;12.48;5.85;;;;;;;;;;5268116;28;20029;-83
2022/08/03 03:15:35;;;;;;;13.63;6.30;;;;;;;;;;5279657;28;20040;-82
2022/08/03 03:18:08;;;;;;;14.15;6.70;;;;;;;;;;5285465;28;20335;-82
2022/08/03 03:20:40;;;;;;;11.43;6.20;;;;;;;;;;5293659;28;20456;-82
2022/08/03 03:23:11;;;;;;;9.73;6.03;;;;;;;;;;5267710;28;20029;-82
2022/08/03 03:25:43;;;;;;;14.48;7.38;;;;;;;;;;5286445;28;20395;-82
2022/08/03 03:28:14;;;;;;;15.63;6.68;;;;;;;;;;5266394;28;20113;-82
2022/08/03 03:30:45;;;;;;;14.90;6.37;;;;;;;;;;5267995;28;20036;-82
2022/08/03 03:33:16;;;;;;;11.57;5.93;;;;;;;;;;5272044;28;20819;-83
2022/08/03 03:35:48;;;;;;;9.93;6.27;;;;;;;;;;5286943;28;20485;-82
2022/08/03 03:38:19;;;;;;;12.27;6.25;;;;;;;;;;5270524;28;20409;-83
2022/08/03 03:40:50;;;;;;;12.70;6.63;;;;;;;;;;5293833;28;20370;-83
2022/08/03 03:43:22;;;;;;;14.32;6.50;;;;;;;;;;5284916;28;20025;-83
2022/08/03 03:45:53;;;;;;;9.00;5.82;;;;;;;;;;5289099;28;20029;-83
2022/08/03 03:48:25;;;;;;;12.77;5.93;;;;;;;;;;5288005;28;20024;-83
2022/08/03 03:50:58;;;;;;;10.88;5.90;;;;;;;;;;5285169;28;20068;-82
2022/08/03 03:53:29;;;;;;;9.45;5.40;;;;;;;;;;5284562;28;20029;-82
2022/08/03 03:56:00;;;;;;;15.57;5.87;;;;;;;;;;5287700;28;20094;-83
2022/08/03 03:58:31;;;;;;;10.43;5.80;;;;;;;;;;5288900;28;20252;-82
2022/08/03 04:01:03;;;;;;;13.02;5.72;;;;;;;;;;5285703;28;20348;-83
2022/08/03 04:03:34;;;;;;;18.13;6.43;;;;;;;;;;5289009;28;20375;-82
2022/08/03 04:11:50;;;;;;;9.80;5.25;;;;;;;;;;5285101;28;20477;-82
2022/08/03 04:14:41;;;;;;;10.35;5.63;;;;;;;;;;5275719;28;20040;-82
2022/08/03 04:17:13;;;;;;;10.23;5.38;;;;;;;;;;5287904;28;20063;-83
2022/08/03 04:19:49;;;;;;;11.85;5.57;;;;;;;;;;5284683;28;20564;-83
2022/08/03 04:22:22;;;;;;;10.35;5.13;;;;;;;;;;5281299;28;20059;-83
2022/08/03 04:25:00;;;;;;;13.20;6.28;;;;;;;;;;5268458;28;20083;-83
2022/08/03 04:27:33;;;;;;;9.15;5.20;;;;;;;;;;5263689;28;21847;-83
2022/08/03 04:30:05;;;;;;;10.20;5.20;;;;;;;;;;5276662;28;20074;-83
2022/08/03 04:32:37;;;;;;;14.00;5.10;;;;;;;;;;5272205;28;20082;-83
2022/08/03 04:35:08;;;;;;;10.70;5.80;;;;;;;;;;5277012;28;20051;-83
2022/08/03 04:37:50;;;;;;;11.98;4.93;;;;;;;;;;5276412;28;20485;-83
2022/08/03 04:40:26;;;;;;;10.02;4.68;;;;;;;;;;5284583;28;20508;-83
2022/08/03 04:42:58;;;;;;;11.25;4.85;;;;;;;;;;5271829;28;20021;-83
2022/08/03 04:45:30;;;;;;;16.15;4.72;;;;;;;;;;5280345;28;20029;-83
2022/08/03 04:48:02;;;;;;;11.93;4.60;;;;;;;;;;5255295;28;20907;-84
2022/08/03 04:50:34;;;;;;;9.52;4.63;;;;;;;;;;5279782;28;20035;-83
2022/08/03 04:53:05;;;;;;;15.38;4.72;;;;;;;;;;5277325;28;20393;-83
2022/08/03 04:55:37;;;;;;;14.60;5.35;;;;;;;;;;5285125;28;20041;-82
2022/08/03 04:58:08;;;;;;;9.53;4.50;;;;;;;;;;5274948;28;20066;-82
2022/08/03 05:00:44;;;;;;;9.15;4.93;;;;;;;;;;5278900;28;20296;-83
2022/08/03 05:03:15;;;;;;;13.25;4.78;;;;;;;;;;5263953;28;20144;-83
2022/08/03 05:05:46;;;;;;;9.93;4.88;;;;;;;;;;5278811;28;20497;-83
2022/08/03 05:08:18;;;;;;;8.95;4.57;;;;;;;;;;5255459;28;20067;-83
2022/08/03 05:10:49;;;;;;;9.82;4.20;;;;;;;;;;5259710;28;20067;-82
2022/08/03 05:13:21;;;;;;;10.68;4.28;;;;;;;;;;5278415;28;20057;-82
2022/08/03 05:15:52;;;;;;;13.82;4.43;;;;;;;;;;5284879;28;20072;-82
2022/08/03 05:18:23;;;;;;;7.50;4.15;;;;;;;;;;5279391;28;20583;-82
2022/08/03 05:20:54;;;;;;;11.23;4.60;;;;;;;;;;5287122;28;20036;-82
2022/08/03 05:23:29;;;;;;;7.10;4.20;;;;;;;;;;5275202;28;20283;-82
2022/08/03 05:26:00;;;;;;;7.60;4.10;;;;;;;;;;5277381;28;20102;-83
2022/08/03 05:28:31;;;;;;;14.77;4.60;;;;;;;;;;5283646;28;20036;-83
2022/08/03 05:31:02;;;;;;;10.27;4.25;;;;;;;;;;5295994;28;20032;-83
2022/08/03 05:33:33;;;;;;;8.13;3.80;;;;;;;;;;5277385;28;20033;-83
2022/08/03 05:36:05;;;;;;;12.03;4.00;;;;;;;;;;5274341;28;20326;-83
2022/08/03 05:38:36;;;;;;;8.95;4.00;;;;;;;;;;5270616;28;20280;-83
2022/08/03 05:41:07;;;;;;;9.57;3.70;;;;;;;;;;5253294;28;20399;-83
2022/08/03 05:43:38;;;;;;;11.40;3.87;;;;;;;;;;5276305;28;20021;-84
2022/08/03 05:46:09;;;;;;;11.82;4.00;;;;;;;;;;5283375;28;20105;-81
2022/08/03 05:48:41;;;;;;;5.40;3.00;;;;;;;;;;5286793;28;20029;-82
2022/08/03 05:51:12;;;;;;;11.63;3.95;;;;;;;;;;5277805;28;20323;-82
2022/08/03 05:53:44;;;;;;;6.70;3.43;;;;;;;;;;5277538;28;20040;-81
2022/08/03 05:56:15;;;;;;;7.95;3.10;;;;;;;;;;5258335;28;20123;-82
2022/08/03 05:58:46;;;;;;;7.50;2.83;;;;;;;;;;5279690;28;20138;-82
2022/08/03 06:01:20;;;;;;;6.82;2.90;;;;;;;;;;5258731;28;20075;-82
2022/08/03 06:03:51;;;;;;;11.70;2.95;;;;;;;;;;5272290;28;20034;-82
2022/08/03 06:06:22;;;;;;;10.43;2.60;;;;;;;;;;5274695;28;20075;-81
2022/08/03 06:08:54;;;;;;;6.60;2.63;;;;;;;;;;5274079;28;20112;-82
2022/08/03 06:11:25;;;;;;;6.33;1.87;;;;;;;;;;5272447;28;20361;-83
2022/08/03 06:13:56;;;;;;;14.97;2.50;;;;;;;;;;5255425;28;20021;-81
2022/08/03 06:16:27;;;;;;;8.83;2.30;;;;;;;;;;5274445;28;21627;-81
2022/08/03 06:18:58;;;;;;;9.20;2.70;;;;;;;;;;5259980;28;20402;-81
2022/08/03 06:21:29;;;;;;;8.10;2.65;;;;;;;;;;5271434;28;20065;-82
2022/08/03 06:24:01;;;;;;;10.67;2.40;;;;;;;;;;5275030;28;20034;-82
2022/08/03 06:26:32;;;;;;;6.82;2.42;;;;;;;;;;5257959;28;20052;-82
2022/08/03 06:29:03;;;;;;;13.80;3.10;;;;;;;;;;5257740;28;20044;-82
2022/08/03 06:31:34;;;;;;;9.53;2.33;;;;;;;;;;5273818;28;20068;-83
2022/08/03 06:34:06;;;;;;;7.10;2.35;;;;;;;;;;5274712;28;20025;-83
2022/08/03 06:36:37;;;;;;;6.28;2.38;;;;;;;;;;5275014;28;20061;-82
2022/08/03 06:39:08;;;;;;;6.60;2.08;;;;;;;;;;5277375;28;20373;-82
2022/08/03 06:41:39;;;;;;;8.60;2.13;;;;;;;;;;5279276;28;20145;-82
2022/08/03 06:44:11;;;;;;;8.13;2.67;;;;;;;;;;5277678;28;20030;-82
2022/08/03 06:46:42;;;;;;;9.98;2.28;;;;;;;;;;5272315;28;20464;-82
2022/08/03 06:49:13;;;;;;;7.67;2.80;;;;;;;;;;5259096;28;20032;-83
2022/08/03 06:51:44;;;;;;;7.03;2.53;;;;;;;;;;5272250;28;20040;-82
2022/08/03 06:54:16;;;;;;;11.73;2.70;;;;;;;;;;5273262;28;20033;-82
2022/08/03 06:56:47;;;;;;;6.93;2.67;;;;;;;;;;5274568;28;20516;-82
2022/08/03 06:59:18;;;;;;;8.45;2.95;;;;;;;;;;5272683;28;20021;-82
2022/08/03 07:01:50;;;;;;;9.03;2.40;;;;;;;;;;5257635;28;20044;-81
2022/08/03 07:04:21;;;;;;;9.40;2.30;;;;;;;;;;5272675;28;20045;-81
2022/08/03 07:06:54;;;;;;;9.20;1.98;;;;;;;;;;5258625;28;20029;-82
2022/08/03 07:09:25;;;;;;;10.02;3.35;;;;;;;;;;5274323;28;20028;-82
2022/08/03 07:11:57;;;;;;;10.77;2.40;;;;;;;;;;5274349;28;20024;-82
2022/08/03 07:14:28;;;;;;;7.40;2.53;;;;;;;;;;5275400;28;20028;-83
2022/08/03 07:16:59;;;;;;;9.77;2.40;;;;;;;;;;5273551;28;20490;-82
2022/08/03 07:19:31;;;;;;;8.90;2.00;;;;;;;;;;5274129;28;20441;-82
2022/08/03 07:22:02;;;;;;;7.20;2.30;;;;;;;;;;5274191;28;20032;-83
2022/08/03 07:24:33;;;;;;;10.25;2.13;;;;;;;;;;5275466;28;20064;-83
2022/08/03 07:27:05;;;;;;;12.07;2.70;;;;;;;;;;5280412;28;20048;-81
2022/08/03 07:29:36;;;;;;;15.27;2.67;;;;;;;;;;5276009;28;20036;-81
2022/08/03 07:32:07;;;;;;;7.93;2.22;;;;;;;;;;5273542;28;20025;-82
2022/08/03 07:34:39;;;;;;;11.37;2.80;;;;;;;;;;5260235;28;20033;-83
2022/08/03 07:37:10;;;;;;;12.23;2.47;;;;;;;;;;5278521;28;20020;-82
2022/08/03 07:39:41;;;;;;;9.23;2.60;;;;;;;;;;5265342;28;20252;-82
2022/08/03 07:42:13;;;;;;;8.43;2.13;;;;;;;;;;5271223;28;20129;-81
2022/08/03 07:44:44;;;;;;;8.77;2.40;;;;;;;;;;5266611;28;20332;-82
2022/08/03 07:47:25;;;;;;;6.53;2.27;;;;;;;;;;5284488;28;20482;-82
2022/08/03 07:49:56;;;;;;;11.82;2.00;;;;;;;;;;5267436;28;20028;-82
2022/08/03 07:55:19;;;;;;;13.30;2.38;;;;;;;;;;5284214;28;20033;-82
2022/08/03 07:58:05;;;;;;;11.05;2.88;;;;;;;;;;5267533;28;20140;-82
2022/08/03 08:00:37;;;;;;;10.98;2.40;;;;;;;;;;5284917;28;20045;-82
2022/08/03 08:03:08;;;;;;;11.68;2.92;;;;;;;;;;5285504;28;20083;-83
2022/08/03 08:05:40;;;;;;;14.00;2.40;;;;;;;;;;5285598;28;20063;-82
2022/08/03 08:08:11;;;;;;;11.77;2.80;;;;;;;;;;5284960;28;20100;-82
2022/08/03 08:10:42;;;;;;;10.57;2.30;;;;;;;;;;5285462;28;20287;-83
2022/08/03 08:13:13;;;;;;;13.30;2.50;;;;;;;;;;5266924;28;20025;-82
2022/08/03 08:15:44;;;;;;;10.93;2.03;;;;;;;;;;5285315;28;20047;-82
2022/08/03 08:18:17;;;;;;;8.63;2.37;;;;;;;;;;5283657;28;20330;-82
2022/08/03 08:20:48;;;;;;;14.35;2.50;;;;;;;;;;5285294;28;20021;-82
2022/08/03 08:23:22;;;;;;;12.18;2.40;;;;;;;;;;5284596;28;20381;-82
2022/08/03 08:25:53;;;;;;;10.82;2.53;;;;;;;;;;5284234;28;20021;-81
2022/08/03 08:28:24;;;;;;;11.63;2.57;;;;;;;;;;5283353;28;20075;-82
2022/08/03 08:30:55;;;;;;;16.73;3.17;;;;;;;;;;5283386;28;20056;-82
2022/08/03 08:33:27;;;;;;;16.53;2.87;;;;;;;;;;5288200;28;20021;-81
2022/08/03 08:35:58;;;;;;;10.57;2.78;;;;;;;;;;5295101;28;20017;-81
2022/08/03 08:38:29;;;;;;;10.53;2.33;;;;;;;;;;5294611;28;20401;-81
2022/08/03 08:41:00;;;;;;;12.20;2.77;;;;;;;;;;5294026;28;20398;-81
2022/08/03 08:43:31;;;;;;;10.37;1.90;;;;;;;;;;5286862;28;20029;-82
2022/08/03 08:46:04;;;;;;;16.53;2.60;;;;;;;;;;5286063;28;20025;-81
2022/08/03 08:48:39;;;;;;;6.85;1.95;;;;;;;;;;5284767;28;20021;-82
2022/08/03 08:51:11;;;;;;;15.50;3.58;;;;;;;;;;5284692;28;20028;-82
2022/08/03 08:53:43;;;;;;;10.32;2.60;;;;;;;;;;5271888;28;20044;-81
2022/08/03 08:56:15;;;;;;;12.88;2.33;;;;;;;;;;5282839;28;20109;-82
2022/08/03 08:58:47;;;;;;;16.20;2.20;;;;;;;;;;5278807;28;20034;-81
2022/08/03 09:01:19;;;;;;;10.20;2.08;;;;;;;;;;5274814;28;20018;-82
2022/08/03 09:03:52;;;;;;;15.48;2.72;;;;;;;;;;5263993;28;20044;-82
2022/08/03 09:06:24;;;;;;;10.73;2.90;;;;;;;;;;5263533;28;20025;-82
2022/08/03 09:08:55;;;;;;;24.23;3.40;;;;;;;;;;5263641;28;20429;-82
2022/08/03 09:11:26;;;;;;;16.73;2.40;;;;;;;;;;5262956;28;20053;-82
2022/08/03 09:13:57;;;;;;;43.57;6.93;;;;;;;;;;5271910;28;20031;-82
2022/08/03 09:16:28;;;;;;;57.87;10.43;;;;;;;;;;5284407;28;20743;-82
2022/08/03 09:19:11;;;;;;;14.00;3.47;;;;;;;;;;5266551;28;20032;-81
2022/08/03 09:21:42;;;;;;;13.13;2.22;;;;;;;;;;5265065;28;20029;-82
2022/08/03 09:24:14;;;;;;;18.17;3.20;;;;;;;;;;5283926;28;20037;-82
2022/08/03 09:26:49;;;;;;;13.98;3.03;;;;;;;;;;5283887;28;20049;-82
2022/08/03 09:29:21;;;;;;;;;;;;;;;;;;5284114;28;20056;-81
2022/08/03 09:31:59;;;;;;;86.88;11.15;;;;;;;;;;5284045;28;19959;-82
2022/08/03 09:34:30;;;;;;;22.08;3.38;;;;;;;;;;5248223;28;20152;-81
2022/08/03 09:37:11;;;;;;;13.35;2.65;;;;;;;;;;5266566;28;20061;-81
2022/08/03 09:39:44;;;;;;;14.05;3.13;;;;;;;;;;5282007;28;20033;-82
2022/08/03 09:42:17;;;;;;;12.68;2.47;;;;;;;;;;5282145;28;20029;-81
2022/08/03 09:44:49;;;;;;;12.50;2.60;;;;;;;;;;5281821;28;20615;-81
2022/08/03 09:47:27;;;;;;;14.65;3.08;;;;;;;;;;5283442;28;20099;-82
2022/08/03 09:50:00;;;;;;;11.32;2.75;;;;;;;;;;5283274;28;20086;-82
2022/08/03 09:52:33;;;;;;;19.80;3.15;;;;;;;;;;5283384;28;20096;-82
2022/08/03 09:55:08;;;;;;;15.25;2.45;;;;;;;;;;5264527;28;20123;-82
2022/08/03 09:57:44;;;;;;;11.93;2.80;;;;;;;;;;5282129;28;20543;-82
2022/08/03 10:00:16;;;;;;;17.30;3.40;;;;;;;;;;5282714;28;20079;-82
2022/08/03 10:02:49;;;;;;;16.10;3.60;;;;;;;;;;5283699;28;20021;-82
2022/08/03 10:05:30;;;;;;;15.45;3.13;;;;;;;;;;5283249;28;20441;-82
2022/08/03 10:08:13;;;;;;;29.50;3.92;;;;;;;;;;5283421;28;20060;-82
2022/08/03 10:10:45;;;;;;;14.43;2.95;;;;;;;;;;5282999;28;20036;-81
2022/08/03 10:13:17;;;;;;;12.20;2.80;;;;;;;;;;5263779;28;20025;-81
2022/08/03 10:15:48;;;;;;;16.02;3.28;;;;;;;;;;5282485;28;20098;-81
2022/08/03 10:18:20;;;;;;;13.25;3.63;;;;;;;;;;5282626;28;20032;-81
2022/08/03 10:20:52;;;;;;;15.17;3.23;;;;;;;;;;5265061;28;20056;-81
2022/08/03 10:23:24;;;;;;;15.25;3.65;;;;;;;;;;5264041;28;20132;-81
2022/08/03 10:25:57;;;;;;;15.15;2.67;;;;;;;;;;5264608;28;20136;-81
2022/08/03 10:28:33;;;;;;;18.52;4.28;;;;;;;;;;5264758;28;20136;-81
2022/08/03 10:31:06;;;;;;;15.50;3.35;;;;;;;;;;5282096;28;20044;-81
2022/08/03 10:33:41;;;;;;;17.25;3.30;;;;;;;;;;5277228;28;20018;-80
2022/08/03 10:36:12;;;;;;;;;;;;;;;;;;5270222;28;20124;-81
2022/08/03 10:38:46;;;;;;;15.10;3.15;;;;;;;;;;5265398;28;19959;-81
2022/08/03 10:41:20;;;;;;;15.60;3.45;;;;;;;;;;5261873;28;20017;-81
2022/08/03 10:43:52;;;;;;;13.20;2.92;;;;;;;;;;5261479;28;20038;-80
2022/08/03 10:46:24;;;;;;;12.40;3.20;;;;;;;;;;5265271;28;20474;-81
2022/08/03 10:48:56;;;;;;;14.13;3.08;;;;;;;;;;5265922;28;20108;-81
2022/08/03 10:51:30;;;;;;;11.15;2.75;;;;;;;;;;5265104;28;20446;-81
2022/08/03 10:54:02;;;;;;;11.02;2.35;;;;;;;;;;5285600;28;20041;-81
2022/08/03 10:59:42;;;;;;;12.82;2.40;;;;;;;;;;5265002;28;20026;-81
2022/08/03 11:02:13;;;;;;;11.57;2.78;;;;;;;;;;5283939;28;20512;-81
2022/08/03 11:04:45;;;;;;;10.65;2.22;;;;;;;;;;5286238;28;20056;-81
2022/08/03 11:07:16;;;;;;;13.10;3.37;;;;;;;;;;5286013;28;20474;-81
2022/08/03 11:09:48;;;;;;;13.73;2.97;;;;;;;;;;5285820;28;20061;-81
2022/08/03 11:12:22;;;;;;;10.13;2.35;;;;;;;;;;5266090;28;20075;-81
2022/08/03 11:14:53;;;;;;;;;;;;;;;;;;5269385;28;20520;-81
2022/08/03 11:17:25;;;;;;;10.45;2.33;;;;;;;;;;5286617;28;19908;-81
2022/08/03 11:19:56;;;;;;;11.27;2.57;;;;;;;;;;5288156;28;20013;-82
2022/08/03 11:22:46;;;;;;;11.97;2.73;;;;;;;;;;5269757;28;20404;-81
2022/08/03 11:25:17;;;;;;;7.50;1.83;;;;;;;;;;5286651;28;20075;-81
2022/08/03 11:28:09;;;;;;;6.97;1.60;;;;;;;;;;5286751;28;20486;-81
2022/08/03 11:30:40;;;;;;;13.05;2.17;;;;;;;;;;5287580;28;20573;-82
2022/08/03 11:33:27;;;;;;;9.30;2.00;;;;;;;;;;5288532;28;20025;-80
2022/08/03 11:35:59;;;;;;;7.95;1.83;;;;;;;;;;5289815;28;20036;-81
2022/08/03 11:38:30;;;;;;;6.68;1.95;;;;;;;;;;5292896;28;20056;-81
2022/08/03 11:41:01;;;;;;;10.20;2.40;;;;;;;;;;5267825;28;20021;-81
2022/08/03 11:43:34;;;;;;;7.53;2.17;;;;;;;;;;5277290;28;20125;-81
2022/08/03 11:46:05;;;;;;;8.95;1.60;;;;;;;;;;5278598;28;20039;-81
2022/08/03 11:48:37;;;;;;;8.03;1.77;;;;;;;;;;5279370;28;20032;-81
2022/08/03 11:51:22;;;;;;;8.50;2.28;;;;;;;;;;5291188;28;20120;-81
2022/08/03 11:53:55;;;;;;;6.47;1.90;;;;;;;;;;5290353;28;20420;-81
2022/08/03 11:56:27;;;;;;;6.68;1.90;;;;;;;;;;5284966;28;20036;-81
2022/08/03 11:58:59;;;;;;;6.30;1.90;;;;;;;;;;5271809;28;20033;-81
2022/08/03 12:01:30;;;;;;;8.25;1.70;;;;;;;;;;5278820;28;20028;-82
2022/08/03 12:04:03;;;;;;;6.45;1.50;;;;;;;;;;5288534;28;20021;-82
2022/08/03 12:06:53;;;;;;;9.90;2.05;;;;;;;;;;5291999;28;20391;-81
2022/08/03 12:09:24;;;;;;;6.22;1.35;;;;;;;;;;5291230;28;20090;-81
2022/08/03 12:11:56;;;;;;;6.60;1.73;;;;;;;;;;5296491;28;20020;-82
2022/08/03 12:14:29;;;;;;;9.25;1.67;;;;;;;;;;5274039;28;20495;-82
2022/08/03 12:17:00;;;;;;;9.85;1.67;;;;;;;;;;5275844;28;20033;-81
2022/08/03 12:19:40;;;;;;;5.38;1.63;;;;;;;;;;5266131;28;20029;-81
2022/08/03 12:22:12;;;;;;;9.80;1.88;;;;;;;;;;5290034;28;20033;-82
2022/08/03 12:24:43;;;;;;;8.68;1.60;;;;;;;;;;5285000;28;20023;-82
2022/08/03 12:27:24;;;;;;;11.05;1.83;;;;;;;;;;5282675;28;20041;-82
2022/08/03 12:29:56;;;;;;;7.07;1.52;;;;;;;;;;5278072;28;20090;-81
2022/08/03 12:32:28;;;;;;;5.70;1.23;;;;;;;;;;5287449;28;20497;-81
2022/08/03 12:35:04;;;;;;;8.00;1.50;;;;;;;;;;5282438;28;20028;-82
2022/08/03 12:37:35;;;;;;;8.85;1.88;;;;;;;;;;5288107;28;20482;-81
2022/08/03 12:40:09;;;;;;;5.53;1.27;;;;;;;;;;5278946;28;20025;-81
2022/08/03 12:42:41;;;;;;;12.60;1.92;;;;;;;;;;5272832;28;20036;-81
2022/08/03 12:45:21;;;;;;;5.87;1.30;;;;;;;;;;5292611;28;20024;-81
2022/08/03 12:47:53;;;;;;;8.27;1.40;;;;;;;;;;5297483;28;20032;-81
2022/08/03 12:50:26;;;;;;;7.35;1.20;;;;;;;;;;5291731;28;20351;-81
2022/08/03 12:52:58;;;;;;;5.10;1.80;;;;;;;;;;5275760;28;20060;-81
2022/08/03 12:55:35;;;;;;;8.80;1.58;;;;;;;;;;5283025;28;20074;-81
2022/08/03 12:58:09;;;;;;;6.93;1.65;;;;;;;;;;5266625;28;20029;-81
2022/08/03 13:00:40;;;;;;;;;;;;;;;;;;5279941;28;20033;-81
2022/08/03 13:03:11;;;;;;;7.65;1.67;;;;;;;;;;5284411;28;20292;-80
2022/08/03 13:05:43;;;;;;;5.53;1.20;;;;;;;;;;5281646;28;20405;-81
2022/08/03 13:08:18;;;;;;;8.48;1.65;;;;;;;;;;5265496;28;20107;-81
2022/08/03 13:10:50;;;;;;;6.22;1.50;;;;;;;;;;5271488;28;20056;-81
2022/08/03 13:13:38;;;;;;;6.40;1.50;;;;;;;;;;5266657;28;20033;-81
2022/08/03 13:16:09;;;;;;;7.43;1.50;;;;;;;;;;5277893;28;20024;-81
2022/08/03 13:18:40;;;;;;;7.93;1.60;;;;;;;;;;5264660;28;20474;-81
2022/08/03 13:21:12;;;;;;;10.67;2.17;;;;;;;;;;5263377;28;20452;-81
2022/08/03 13:23:44;;;;;;;5.13;1.30;;;;;;;;;;5268165;28;20065;-81
2022/08/03 13:26:15;;;;;;;10.63;1.80;;;;;;;;;;5269144;28;20518;-81
2022/08/03 13:28:46;;;;;;;7.47;1.37;;;;;;;;;;5270524;28;20021;-81
2022/08/03 13:31:18;;;;;;;6.03;1.30;;;;;;;;;;5272986;28;20068;-81
2022/08/03 13:33:49;;;;;;;6.27;1.70;;;;;;;;;;5266899;28;20323;-81
2022/08/03 13:36:20;;;;;;;8.57;1.60;;;;;;;;;;5283228;28;20409;-81
2022/08/03 13:38:51;;;;;;;5.47;1.30;;;;;;;;;;5280895;28;20070;-81
2022/08/03 13:41:22;;;;;;;7.33;1.30;;;;;;;;;;5282533;28;20036;-81
2022/08/03 13:43:55;;;;;;;9.03;1.77;;;;;;;;;;5282011;28;20151;-81
2022/08/03 13:46:26;;;;;;;6.80;1.70;;;;;;;;;;5262192;28;20549;-81
2022/08/03 13:48:57;;;;;;;6.72;1.80;;;;;;;;;;5272431;28;20025;-81
2022/08/03 13:51:29;;;;;;;6.90;1.40;;;;;;;;;;5283465;28;20138;-81
2022/08/03 13:54:00;;;;;;;5.38;1.52;;;;;;;;;;5286091;28;20024;-77
2022/08/03 13:56:31;;;;;;;6.97;1.93;;;;;;;;;;5266962;28;20029;-80
2022/08/03 13:59:02;;;;;;;11.10;1.90;;;;;;;;;;5272449;28;20384;-81
2022/08/03 14:01:33;;;;;;;9.00;1.43;;;;;;;;;;5300185;28;20040;-80
2022/08/03 14:04:05;;;;;;;4.07;1.25;;;;;;;;;;5273077;28;20064;-81
2022/08/03 14:06:36;;;;;;;5.57;1.30;;;;;;;;;;5262885;28;20588;-81
2022/08/03 14:09:07;;;;;;;7.50;1.50;;;;;;;;;;5261670;28;20049;-81
2022/08/03 14:11:39;;;;;;;5.80;1.53;;;;;;;;;;5285211;28;20117;-81
2022/08/03 14:14:10;;;;;;;6.38;1.77;;;;;;;;;;5269948;28;20013;-82
2022/08/03 14:16:42;;;;;;;7.07;1.23;;;;;;;;;;5280737;28;20103;-81
2022/08/03 14:19:14;;;;;;;6.32;1.30;;;;;;;;;;5294987;28;20476;-81
2022/08/03 14:21:45;;;;;;;2.70;0.90;;;;;;;;;;5283562;28;20508;-81
2022/08/03 14:24:17;;;;;;;5.27;1.30;;;;;;;;;;5282536;28;20025;-81
2022/08/03 14:26:48;;;;;;;8.43;1.20;;;;;;;;;;5273571;28;20050;-81
2022/08/03 14:29:19;;;;;;;7.23;1.70;;;;;;;;;;5270024;28;20447;-81
2022/08/03 14:31:50;;;;;;;7.90;1.53;;;;;;;;;;5278836;28;20036;-81
2022/08/03 14:34:21;;;;;;;6.20;1.83;;;;;;;;;;5271524;28;20456;-81
2022/08/03 14:36:52;;;;;;;13.83;1.60;;;;;;;;;;5273592;28;20115;-81
2022/08/03 14:39:24;;;;;;;9.27;1.83;;;;;;;;;;5282980;28;20063;-81
2022/08/03 14:41:55;;;;;;;7.43;1.40;;;;;;;;;;5262106;28;20045;-81
2022/08/03 14:44:26;;;;;;;10.13;1.77;;;;;;;;;;5279867;28;20029;-81
2022/08/03 14:46:58;;;;;;;5.43;1.10;;;;;;;;;;5264428;28;20064;-81
2022/08/03 14:49:29;;;;;;;6.43;1.47;;;;;;;;;;5281827;28;20830;-81
2022/08/03 14:52:00;;;;;;;7.63;1.70;;;;;;;;;;5263419;28;20051;-81
2022/08/03 14:54:31;;;;;;;5.00;1.40;;;;;;;;;;5280934;28;20106;-81
2022/08/03 14:57:02;;;;;;;7.20;1.30;;;;;;;;;;5268567;28;20033;-81
2022/08/03 14:59:34;;;;;;;4.50;1.30;;;;;;;;;;5273186;28;20028;-81
2022/08/03 15:02:05;;;;;;;6.03;1.37;;;;;;;;;;5279434;28;20036;-81
2022/08/03 15:04:36;;;;;;;7.85;1.40;;;;;;;;;;5281217;28;20498;-81
2022/08/03 15:07:08;;;;;;;6.97;1.33;;;;;;;;;;5264698;28;20085;-81
2022/08/03 15:09:39;;;;;;;4.90;1.15;;;;;;;;;;5282392;28;20116;-81
2022/08/03 15:12:10;;;;;;;3.80;1.20;;;;;;;;;;5275420;28;20502;-81
2022/08/03 15:14:41;;;;;;;5.53;1.73;;;;;;;;;;5273805;28;20037;-80
2022/08/03 15:17:12;;;;;;;5.63;1.50;;;;;;;;;;5263762;28;20029;-82
2022/08/03 15:19:44;;;;;;;5.27;1.53;;;;;;;;;;5282815;28;20044;-81